Terminal Aerodrome Forecast
Issued by NWS Memphis, TN

Home | Current Version | Previous Version | Text Only | Print | Product List | Glossary On
Versions: 1 2 3 4 5 6 7 8 9 10 11 12 13 14 15 16 17 18 19 20 21 22 23 24 25 26 27
000
FTUS44 KMEG 280301 AAC
TAFMEM
TAF AMD
KMEM 280301Z 2803/2824 26008KT P6SM VCSH SCT040 BKN080
     FM280800 21007KT P6SM VCSH OVC045
     FM281700 32008KT P6SM VCTS BKN050CB
     FM282200 01005KT P6SM SCT040 BKN080=

USA.gov is the U.S. government's official web portal to all federal, state and local government web resources and services.